sensor_id;sensor_type;location;lat;lon;timestamp;pressure;altitude;pressure_sealevel;temperature
10058;BMP180;5068;51.286;7.518;2023-07-29T00:01:11;98597.00;;;20.90
10058;BMP180;5068;51.286;7.518;2023-07-29T00:02:44;98594.00;;;20.90
10058;BMP180;5068;51.286;7.518;2023-07-29T00:04:18;98610.00;;;20.90
10058;BMP180;5068;51.286;7.518;2023-07-29T00:05:51;98597.00;;;20.90
10058;BMP180;5068;51.286;7.518;2023-07-29T00:07:24;98597.00;;;20.90
10058;BMP180;5068;51.286;7.518;2023-07-29T00:08:57;98589.00;;;20.90
10058;BMP180;5068;51.286;7.518;2023-07-29T00:10:32;98595.00;;;20.90
10058;BMP180;5068;51.286;7.518;2023-07-29T00:12:06;98586.00;;;20.90
10058;BMP180;5068;51.286;7.518;2023-07-29T00:13:40;98583.00;;;20.90
10058;BMP180;5068;51.286;7.518;2023-07-29T00:15:13;98579.00;;;20.90
10058;BMP180;5068;51.286;7.518;2023-07-29T00:16:47;98582.00;;;20.90
10058;BMP180;5068;51.286;7.518;2023-07-29T00:18:20;98573.00;;;20.90
10058;BMP180;5068;51.286;7.518;2023-07-29T00:19:53;98567.00;;;20.90
10058;BMP180;5068;51.286;7.518;2023-07-29T00:21:26;98577.00;;;20.90
10058;BMP180;5068;51.286;7.518;2023-07-29T00:23:00;98583.00;;;20.90
10058;BMP180;5068;51.286;7.518;2023-07-29T00:24:33;98575.00;;;20.90
10058;BMP180;5068;51.286;7.518;2023-07-29T00:26:07;98574.00;;;20.90
10058;BMP180;5068;51.286;7.518;2023-07-29T00:27:40;98570.00;;;20.90
10058;BMP180;5068;51.286;7.518;2023-07-29T00:29:14;98561.00;;;20.90
10058;BMP180;5068;51.286;7.518;2023-07-29T00:30:48;98559.00;;;20.90
10058;BMP180;5068;51.286;7.518;2023-07-29T00:32:21;98558.00;;;20.90
10058;BMP180;5068;51.286;7.518;2023-07-29T00:33:54;98567.00;;;20.90
10058;BMP180;5068;51.286;7.518;2023-07-29T00:35:27;98563.00;;;20.80
10058;BMP180;5068;51.286;7.518;2023-07-29T00:37:01;98568.00;;;20.80
10058;BMP180;5068;51.286;7.518;2023-07-29T00:38:34;98574.00;;;20.80
10058;BMP180;5068;51.286;7.518;2023-07-29T00:40:16;98566.00;;;20.80
10058;BMP180;5068;51.286;7.518;2023-07-29T00:41:52;98574.00;;;20.80
10058;BMP180;5068;51.286;7.518;2023-07-29T00:43:26;98575.00;;;20.80
10058;BMP180;5068;51.286;7.518;2023-07-29T00:45:00;98556.00;;;20.80
10058;BMP180;5068;51.286;7.518;2023-07-29T00:46:38;98558.00;;;20.80
10058;BMP180;5068;51.286;7.518;2023-07-29T00:48:13;98556.00;;;20.80
10058;BMP180;5068;51.286;7.518;2023-07-29T00:49:46;98551.00;;;20.80
10058;BMP180;5068;51.286;7.518;2023-07-29T00:51:20;98554.00;;;20.80
10058;BMP180;5068;51.286;7.518;2023-07-29T00:52:54;98550.00;;;20.80
10058;BMP180;5068;51.286;7.518;2023-07-29T00:54:28;98553.00;;;20.80
10058;BMP180;5068;51.286;7.518;2023-07-29T00:56:02;98548.00;;;20.80
10058;BMP180;5068;51.286;7.518;2023-07-29T00:57:35;98555.00;;;20.80
10058;BMP180;5068;51.286;7.518;2023-07-29T00:59:09;98539.00;;;20.70
10058;BMP180;5068;51.286;7.518;2023-07-29T01:00:43;98539.00;;;20.80
10058;BMP180;5068;51.286;7.518;2023-07-29T01:02:17;98537.00;;;20.70
10058;BMP180;5068;51.286;7.518;2023-07-29T01:03:49;98538.00;;;20.70
10058;BMP180;5068;51.286;7.518;2023-07-29T01:05:30;98545.00;;;20.80
10058;BMP180;5068;51.286;7.518;2023-07-29T01:07:16;98537.00;;;20.80
10058;BMP180;5068;51.286;7.518;2023-07-29T01:08:59;98530.00;;;20.80
10058;BMP180;5068;51.286;7.518;2023-07-29T01:10:45;98542.00;;;20.80
10058;BMP180;5068;51.286;7.518;2023-07-29T01:12:24;98525.00;;;20.80
10058;BMP180;5068;51.286;7.518;2023-07-29T01:14:10;98523.00;;;20.80
10058;BMP180;5068;51.286;7.518;2023-07-29T01:15:55;98530.00;;;20.70
10058;BMP180;5068;51.286;7.518;2023-07-29T01:17:37;98526.00;;;20.70
10058;BMP180;5068;51.286;7.518;2023-07-29T01:19:31;98520.00;;;20.70
10058;BMP180;5068;51.286;7.518;2023-07-29T01:21:09;98524.00;;;20.70
10058;BMP180;5068;51.286;7.518;2023-07-29T01:22:44;98526.00;;;20.70
10058;BMP180;5068;51.286;7.518;2023-07-29T01:24:18;98529.00;;;20.70
10058;BMP180;5068;51.286;7.518;2023-07-29T01:25:52;98524.00;;;20.70
10058;BMP180;5068;51.286;7.518;2023-07-29T01:27:24;98524.00;;;20.70
10058;BMP180;5068;51.286;7.518;2023-07-29T01:28:58;98521.00;;;20.80
10058;BMP180;5068;51.286;7.518;2023-07-29T01:30:37;98534.00;;;20.80
10058;BMP180;5068;51.286;7.518;2023-07-29T01:32:24;98527.00;;;20.80
10058;BMP180;5068;51.286;7.518;2023-07-29T01:34:08;98528.00;;;20.80
10058;BMP180;5068;51.286;7.518;2023-07-29T01:35:48;98529.00;;;20.80
10058;BMP180;5068;51.286;7.518;2023-07-29T01:37:29;98527.00;;;20.80
10058;BMP180;5068;51.286;7.518;2023-07-29T01:39:03;98524.00;;;20.80
10058;BMP180;5068;51.286;7.518;2023-07-29T01:40:39;98522.00;;;20.80
10058;BMP180;5068;51.286;7.518;2023-07-29T01:42:13;98526.00;;;20.80
10058;BMP180;5068;51.286;7.518;2023-07-29T01:43:47;98528.00;;;20.80
10058;BMP180;5068;51.286;7.518;2023-07-29T01:45:23;98516.00;;;20.90
10058;BMP180;5068;51.286;7.518;2023-07-29T01:46:58;98519.00;;;20.90
10058;BMP180;5068;51.286;7.518;2023-07-29T01:48:31;98515.00;;;20.90
10058;BMP180;5068;51.286;7.518;2023-07-29T01:50:07;98510.00;;;20.90
10058;BMP180;5068;51.286;7.518;2023-07-29T01:51:39;98512.00;;;20.90
10058;BMP180;5068;51.286;7.518;2023-07-29T01:53:13;98504.00;;;20.90
10058;BMP180;5068;51.286;7.518;2023-07-29T01:54:45;98499.00;;;20.90
10058;BMP180;5068;51.286;7.518;2023-07-29T01:56:20;98504.00;;;20.90
10058;BMP180;5068;51.286;7.518;2023-07-29T01:57:59;98507.00;;;20.90
10058;BMP180;5068;51.286;7.518;2023-07-29T01:59:33;98499.00;;;20.90
10058;BMP180;5068;51.286;7.518;2023-07-29T02:01:06;98502.00;;;20.90
10058;BMP180;5068;51.286;7.518;2023-07-29T02:02:39;98503.00;;;20.90
10058;BMP180;5068;51.286;7.518;2023-07-29T02:04:12;98501.00;;;20.90
10058;BMP180;5068;51.286;7.518;2023-07-29T02:05:46;98498.00;;;20.90
10058;BMP180;5068;51.286;7.518;2023-07-29T02:07:19;98501.00;;;20.90
10058;BMP180;5068;51.286;7.518;2023-07-29T02:08:54;98492.00;;;20.90
10058;BMP180;5068;51.286;7.518;2023-07-29T02:10:27;98497.00;;;20.90
10058;BMP180;5068;51.286;7.518;2023-07-29T02:12:02;98495.00;;;20.90
10058;BMP180;5068;51.286;7.518;2023-07-29T02:13:42;98497.00;;;20.90
10058;BMP180;5068;51.286;7.518;2023-07-29T02:15:16;98500.00;;;20.90
10058;BMP180;5068;51.286;7.518;2023-07-29T02:16:48;98499.00;;;20.90
10058;BMP180;5068;51.286;7.518;2023-07-29T02:18:22;98503.00;;;20.90
10058;BMP180;5068;51.286;7.518;2023-07-29T02:19:56;98495.00;;;20.90
10058;BMP180;5068;51.286;7.518;2023-07-29T02:21:28;98496.00;;;20.90
10058;BMP180;5068;51.286;7.518;2023-07-29T02:23:02;98492.00;;;20.90
10058;BMP180;5068;51.286;7.518;2023-07-29T02:24:35;98486.00;;;20.90
10058;BMP180;5068;51.286;7.518;2023-07-29T02:26:08;98492.00;;;21.00
10058;BMP180;5068;51.286;7.518;2023-07-29T02:27:44;98490.00;;;21.00
10058;BMP180;5068;51.286;7.518;2023-07-29T02:29:17;98487.00;;;21.00
10058;BMP180;5068;51.286;7.518;2023-07-29T02:31:14;98489.00;;;21.00
10058;BMP180;5068;51.286;7.518;2023-07-29T02:32:48;98492.00;;;21.00
10058;BMP180;5068;51.286;7.518;2023-07-29T02:34:22;98473.00;;;21.00
10058;BMP180;5068;51.286;7.518;2023-07-29T02:35:55;98480.00;;;21.00
10058;BMP180;5068;51.286;7.518;2023-07-29T02:37:28;98483.00;;;21.00
10058;BMP180;5068;51.286;7.518;2023-07-29T02:39:02;98489.00;;;21.00
10058;BMP180;5068;51.286;7.518;2023-07-29T02:40:34;98484.00;;;21.00
10058;BMP180;5068;51.286;7.518;2023-07-29T02:42:08;98481.00;;;21.00
10058;BMP180;5068;51.286;7.518;2023-07-29T02:43:42;98468.00;;;21.00
10058;BMP180;5068;51.286;7.518;2023-07-29T02:45:16;98479.00;;;21.00
10058;BMP180;5068;51.286;7.518;2023-07-29T02:46:49;98477.00;;;21.00
10058;BMP180;5068;51.286;7.518;2023-07-29T02:48:25;98482.00;;;21.00
10058;BMP180;5068;51.286;7.518;2023-07-29T02:49:58;98483.00;;;20.90
10058;BMP180;5068;51.286;7.518;2023-07-29T02:51:31;98481.00;;;20.90
10058;BMP180;5068;51.286;7.518;2023-07-29T02:53:05;98483.00;;;20.90
10058;BMP180;5068;51.286;7.518;2023-07-29T02:54:37;98484.00;;;20.90
10058;BMP180;5068;51.286;7.518;2023-07-29T02:56:11;98487.00;;;20.90
10058;BMP180;5068;51.286;7.518;2023-07-29T02:57:43;98496.00;;;20.90
10058;BMP180;5068;51.286;7.518;2023-07-29T02:59:18;98489.00;;;20.90
10058;BMP180;5068;51.286;7.518;2023-07-29T03:00:51;98484.00;;;21.00
10058;BMP180;5068;51.286;7.518;2023-07-29T03:02:24;98474.00;;;21.00
10058;BMP180;5068;51.286;7.518;2023-07-29T03:03:57;98474.00;;;21.00
10058;BMP180;5068;51.286;7.518;2023-07-29T03:05:31;98468.00;;;21.00
10058;BMP180;5068;51.286;7.518;2023-07-29T03:07:04;98471.00;;;21.00
10058;BMP180;5068;51.286;7.518;2023-07-29T03:08:37;98472.00;;;21.00
10058;BMP180;5068;51.286;7.518;2023-07-29T03:10:10;98469.00;;;21.00
10058;BMP180;5068;51.286;7.518;2023-07-29T03:11:44;98464.00;;;21.00
10058;BMP180;5068;51.286;7.518;2023-07-29T03:13:17;98464.00;;;21.00
10058;BMP180;5068;51.286;7.518;2023-07-29T03:14:51;98459.00;;;21.00
10058;BMP180;5068;51.286;7.518;2023-07-29T03:16:25;98457.00;;;21.10
10058;BMP180;5068;51.286;7.518;2023-07-29T03:18:00;98466.00;;;21.10
10058;BMP180;5068;51.286;7.518;2023-07-29T03:19:33;98465.00;;;21.10
10058;BMP180;5068;51.286;7.518;2023-07-29T03:21:08;98466.00;;;21.10
10058;BMP180;5068;51.286;7.518;2023-07-29T03:22:40;98473.00;;;21.10
10058;BMP180;5068;51.286;7.518;2023-07-29T03:24:14;98474.00;;;21.10
10058;BMP180;5068;51.286;7.518;2023-07-29T03:25:48;98473.00;;;21.10
10058;BMP180;5068;51.286;7.518;2023-07-29T03:27:23;98470.00;;;21.10
10058;BMP180;5068;51.286;7.518;2023-07-29T03:28:57;98476.00;;;21.00
10058;BMP180;5068;51.286;7.518;2023-07-29T03:30:30;98483.00;;;21.00
10058;BMP180;5068;51.286;7.518;2023-07-29T03:32:05;98488.00;;;21.00
10058;BMP180;5068;51.286;7.518;2023-07-29T03:33:38;98485.00;;;21.10
10058;BMP180;5068;51.286;7.518;2023-07-29T03:35:11;98474.00;;;21.10
10058;BMP180;5068;51.286;7.518;2023-07-29T03:36:45;98467.00;;;21.10
10058;BMP180;5068;51.286;7.518;2023-07-29T03:38:20;98466.00;;;21.10
10058;BMP180;5068;51.286;7.518;2023-07-29T03:39:53;98470.00;;;21.10
10058;BMP180;5068;51.286;7.518;2023-07-29T03:41:27;98467.00;;;21.10
10058;BMP180;5068;51.286;7.518;2023-07-29T03:43:00;98458.00;;;21.10
10058;BMP180;5068;51.286;7.518;2023-07-29T03:44:33;98461.00;;;21.10
10058;BMP180;5068;51.286;7.518;2023-07-29T03:46:09;98465.00;;;21.10
10058;BMP180;5068;51.286;7.518;2023-07-29T03:47:45;98454.00;;;21.10
10058;BMP180;5068;51.286;7.518;2023-07-29T03:49:18;98449.00;;;21.10
10058;BMP180;5068;51.286;7.518;2023-07-29T03:50:51;98459.00;;;21.10
10058;BMP180;5068;51.286;7.518;2023-07-29T03:52:24;98455.00;;;21.10
10058;BMP180;5068;51.286;7.518;2023-07-29T03:53:57;98462.00;;;21.10
10058;BMP180;5068;51.286;7.518;2023-07-29T03:55:31;98466.00;;;21.10
10058;BMP180;5068;51.286;7.518;2023-07-29T03:57:04;98473.00;;;21.10
10058;BMP180;5068;51.286;7.518;2023-07-29T03:58:38;98471.00;;;21.10
10058;BMP180;5068;51.286;7.518;2023-07-29T04:00:12;98462.00;;;21.10
10058;BMP180;5068;51.286;7.518;2023-07-29T04:01:49;98461.00;;;21.10
10058;BMP180;5068;51.286;7.518;2023-07-29T04:03:23;98462.00;;;21.10
10058;BMP180;5068;51.286;7.518;2023-07-29T04:04:57;98466.00;;;21.10
10058;BMP180;5068;51.286;7.518;2023-07-29T04:06:30;98464.00;;;21.10
10058;BMP180;5068;51.286;7.518;2023-07-29T04:08:04;98462.00;;;21.10
10058;BMP180;5068;51.286;7.518;2023-07-29T04:09:37;98468.00;;;21.20
10058;BMP180;5068;51.286;7.518;2023-07-29T04:11:10;98468.00;;;21.20
10058;BMP180;5068;51.286;7.518;2023-07-29T04:12:43;98471.00;;;21.20
10058;BMP180;5068;51.286;7.518;2023-07-29T04:14:16;98466.00;;;21.20
10058;BMP180;5068;51.286;7.518;2023-07-29T04:15:49;98464.00;;;21.10
10058;BMP180;5068;51.286;7.518;2023-07-29T04:17:23;98468.00;;;21.20
10058;BMP180;5068;51.286;7.518;2023-07-29T04:18:57;98469.00;;;21.20
10058;BMP180;5068;51.286;7.518;2023-07-29T04:20:29;98477.00;;;21.20
10058;BMP180;5068;51.286;7.518;2023-07-29T04:22:04;98477.00;;;21.20
10058;BMP180;5068;51.286;7.518;2023-07-29T04:23:36;98475.00;;;21.20
10058;BMP180;5068;51.286;7.518;2023-07-29T04:25:11;98482.00;;;21.20
10058;BMP180;5068;51.286;7.518;2023-07-29T04:26:44;98486.00;;;21.20
10058;BMP180;5068;51.286;7.518;2023-07-29T04:28:18;98485.00;;;21.20
10058;BMP180;5068;51.286;7.518;2023-07-29T04:29:51;98486.00;;;21.30
10058;BMP180;5068;51.286;7.518;2023-07-29T04:31:24;98493.00;;;21.30
10058;BMP180;5068;51.286;7.518;2023-07-29T04:32:59;98493.00;;;21.30
10058;BMP180;5068;51.286;7.518;2023-07-29T04:34:32;98501.00;;;21.30
10058;BMP180;5068;51.286;7.518;2023-07-29T04:36:06;98485.00;;;21.30
10058;BMP180;5068;51.286;7.518;2023-07-29T04:37:39;98479.00;;;21.30
10058;BMP180;5068;51.286;7.518;2023-07-29T04:39:13;98488.00;;;21.30
10058;BMP180;5068;51.286;7.518;2023-07-29T04:40:46;98472.00;;;21.30
10058;BMP180;5068;51.286;7.518;2023-07-29T04:42:19;98471.00;;;21.30
10058;BMP180;5068;51.286;7.518;2023-07-29T04:43:52;98465.00;;;21.30
10058;BMP180;5068;51.286;7.518;2023-07-29T04:45:28;98464.00;;;21.30
10058;BMP180;5068;51.286;7.518;2023-07-29T04:47:02;98460.00;;;21.30
10058;BMP180;5068;51.286;7.518;2023-07-29T04:48:37;98469.00;;;21.30
10058;BMP180;5068;51.286;7.518;2023-07-29T04:50:10;98467.00;;;21.30
10058;BMP180;5068;51.286;7.518;2023-07-29T04:51:43;98471.00;;;21.40
10058;BMP180;5068;51.286;7.518;2023-07-29T04:53:16;98466.00;;;21.40
10058;BMP180;5068;51.286;7.518;2023-07-29T04:54:50;98466.00;;;21.40
10058;BMP180;5068;51.286;7.518;2023-07-29T04:56:24;98465.00;;;21.40
10058;BMP180;5068;51.286;7.518;2023-07-29T04:57:57;98471.00;;;21.40
10058;BMP180;5068;51.286;7.518;2023-07-29T04:59:30;98466.00;;;21.40
10058;BMP180;5068;51.286;7.518;2023-07-29T05:01:03;98470.00;;;21.40
10058;BMP180;5068;51.286;7.518;2023-07-29T05:02:36;98464.00;;;21.40
10058;BMP180;5068;51.286;7.518;2023-07-29T05:04:11;98466.00;;;21.40
10058;BMP180;5068;51.286;7.518;2023-07-29T05:05:45;98468.00;;;21.40
10058;BMP180;5068;51.286;7.518;2023-07-29T05:07:18;98461.00;;;21.40
10058;BMP180;5068;51.286;7.518;2023-07-29T05:08:51;98473.00;;;21.40
10058;BMP180;5068;51.286;7.518;2023-07-29T05:10:24;98477.00;;;21.40
10058;BMP180;5068;51.286;7.518;2023-07-29T05:11:57;98482.00;;;21.40
10058;BMP180;5068;51.286;7.518;2023-07-29T05:13:32;98491.00;;;21.40
10058;BMP180;5068;51.286;7.518;2023-07-29T05:15:08;98488.00;;;21.40
10058;BMP180;5068;51.286;7.518;2023-07-29T05:16:41;98485.00;;;21.40
10058;BMP180;5068;51.286;7.518;2023-07-29T05:18:14;98483.00;;;21.40
10058;BMP180;5068;51.286;7.518;2023-07-29T05:19:49;98483.00;;;21.50
10058;BMP180;5068;51.286;7.518;2023-07-29T05:21:23;98481.00;;;21.50
10058;BMP180;5068;51.286;7.518;2023-07-29T05:22:56;98481.00;;;21.50
10058;BMP180;5068;51.286;7.518;2023-07-29T05:24:29;98483.00;;;21.50
10058;BMP180;5068;51.286;7.518;2023-07-29T05:26:02;98494.00;;;21.50
10058;BMP180;5068;51.286;7.518;2023-07-29T05:27:36;98482.00;;;21.50
10058;BMP180;5068;51.286;7.518;2023-07-29T05:29:09;98477.00;;;21.50
10058;BMP180;5068;51.286;7.518;2023-07-29T05:30:44;98473.00;;;21.60
10058;BMP180;5068;51.286;7.518;2023-07-29T05:32:16;98479.00;;;21.60
10058;BMP180;5068;51.286;7.518;2023-07-29T05:33:50;98483.00;;;21.60
10058;BMP180;5068;51.286;7.518;2023-07-29T05:35:24;98487.00;;;21.60
10058;BMP180;5068;51.286;7.518;2023-07-29T05:36:58;98473.00;;;21.70
10058;BMP180;5068;51.286;7.518;2023-07-29T05:38:32;98479.00;;;21.70
10058;BMP180;5068;51.286;7.518;2023-07-29T05:40:06;98484.00;;;21.70
10058;BMP180;5068;51.286;7.518;2023-07-29T05:41:41;98481.00;;;21.70
10058;BMP180;5068;51.286;7.518;2023-07-29T05:43:14;98478.00;;;21.70
10058;BMP180;5068;51.286;7.518;2023-07-29T05:44:47;98477.00;;;21.70
10058;BMP180;5068;51.286;7.518;2023-07-29T05:46:20;98482.00;;;21.80
10058;BMP180;5068;51.286;7.518;2023-07-29T05:47:53;98474.00;;;21.80
10058;BMP180;5068;51.286;7.518;2023-07-29T05:49:26;98477.00;;;21.80
10058;BMP180;5068;51.286;7.518;2023-07-29T05:51:01;98468.00;;;21.80
10058;BMP180;5068;51.286;7.518;2023-07-29T05:52:35;98467.00;;;21.90
10058;BMP180;5068;51.286;7.518;2023-07-29T05:54:08;98464.00;;;21.90
10058;BMP180;5068;51.286;7.518;2023-07-29T05:55:41;98471.00;;;21.90
10058;BMP180;5068;51.286;7.518;2023-07-29T05:57:14;98466.00;;;21.90
10058;BMP180;5068;51.286;7.518;2023-07-29T05:58:47;98471.00;;;21.90
10058;BMP180;5068;51.286;7.518;2023-07-29T06:00:20;98472.00;;;22.00
10058;BMP180;5068;51.286;7.518;2023-07-29T06:01:53;98480.00;;;22.00
10058;BMP180;5068;51.286;7.518;2023-07-29T06:03:26;98493.00;;;22.00
10058;BMP180;5068;51.286;7.518;2023-07-29T06:05:00;98496.00;;;22.00
10058;BMP180;5068;51.286;7.518;2023-07-29T06:06:36;98495.00;;;22.00
10058;BMP180;5068;51.286;7.518;2023-07-29T06:08:10;98497.00;;;22.00
10058;BMP180;5068;51.286;7.518;2023-07-29T06:09:43;98514.00;;;22.00
10058;BMP180;5068;51.286;7.518;2023-07-29T06:11:17;98516.00;;;22.00
10058;BMP180;5068;51.286;7.518;2023-07-29T06:12:49;98528.00;;;22.00
10058;BMP180;5068;51.286;7.518;2023-07-29T06:14:23;98534.00;;;22.00
10058;BMP180;5068;51.286;7.518;2023-07-29T06:15:57;98540.00;;;22.00
10058;BMP180;5068;51.286;7.518;2023-07-29T06:17:30;98544.00;;;22.00
10058;BMP180;5068;51.286;7.518;2023-07-29T06:19:03;98534.00;;;21.90
10058;BMP180;5068;51.286;7.518;2023-07-29T06:20:36;98540.00;;;21.90
10058;BMP180;5068;51.286;7.518;2023-07-29T06:22:12;98530.00;;;21.90
10058;BMP180;5068;51.286;7.518;2023-07-29T06:23:44;98539.00;;;21.90
10058;BMP180;5068;51.286;7.518;2023-07-29T06:25:18;98526.00;;;21.90
10058;BMP180;5068;51.286;7.518;2023-07-29T06:26:50;98529.00;;;21.90
10058;BMP180;5068;51.286;7.518;2023-07-29T06:28:24;98531.00;;;21.90
10058;BMP180;5068;51.286;7.518;2023-07-29T06:29:57;98540.00;;;21.90
10058;BMP180;5068;51.286;7.518;2023-07-29T06:31:30;98542.00;;;21.90
10058;BMP180;5068;51.286;7.518;2023-07-29T06:33:04;98542.00;;;21.90
10058;BMP180;5068;51.286;7.518;2023-07-29T06:34:37;98542.00;;;21.90
10058;BMP180;5068;51.286;7.518;2023-07-29T06:36:11;98549.00;;;21.90
10058;BMP180;5068;51.286;7.518;2023-07-29T06:37:45;98553.00;;;22.00
10058;BMP180;5068;51.286;7.518;2023-07-29T06:39:18;98558.00;;;22.00
10058;BMP180;5068;51.286;7.518;2023-07-29T06:40:51;98564.00;;;22.00
10058;BMP180;5068;51.286;7.518;2023-07-29T06:42:25;98561.00;;;22.00
10058;BMP180;5068;51.286;7.518;2023-07-29T06:43:59;98567.00;;;22.00
10058;BMP180;5068;51.286;7.518;2023-07-29T06:45:33;98559.00;;;22.00
10058;BMP180;5068;51.286;7.518;2023-07-29T06:47:06;98565.00;;;22.00
10058;BMP180;5068;51.286;7.518;2023-07-29T06:48:39;98556.00;;;22.10
10058;BMP180;5068;51.286;7.518;2023-07-29T06:50:12;98558.00;;;22.10
10058;BMP180;5068;51.286;7.518;2023-07-29T06:51:45;98568.00;;;22.10
10058;BMP180;5068;51.286;7.518;2023-07-29T06:53:20;98571.00;;;22.10
10058;BMP180;5068;51.286;7.518;2023-07-29T06:54:54;98570.00;;;22.20
10058;BMP180;5068;51.286;7.518;2023-07-29T06:56:27;98571.00;;;22.20
10058;BMP180;5068;51.286;7.518;2023-07-29T06:58:02;98568.00;;;22.20
10058;BMP180;5068;51.286;7.518;2023-07-29T06:59:35;98573.00;;;22.20
10058;BMP180;5068;51.286;7.518;2023-07-29T07:01:11;98575.00;;;22.20
10058;BMP180;5068;51.286;7.518;2023-07-29T07:02:44;98572.00;;;22.20
10058;BMP180;5068;51.286;7.518;2023-07-29T07:04:17;98580.00;;;22.20
10058;BMP180;5068;51.286;7.518;2023-07-29T07:05:51;98585.00;;;22.20
10058;BMP180;5068;51.286;7.518;2023-07-29T07:07:23;98576.00;;;22.20
10058;BMP180;5068;51.286;7.518;2023-07-29T07:08:58;98581.00;;;22.20
10058;BMP180;5068;51.286;7.518;2023-07-29T07:10:30;98583.00;;;22.20
10058;BMP180;5068;51.286;7.518;2023-07-29T07:12:07;98584.00;;;22.20
10058;BMP180;5068;51.286;7.518;2023-07-29T07:13:40;98589.00;;;22.20
10058;BMP180;5068;51.286;7.518;2023-07-29T07:15:13;98591.00;;;22.20
10058;BMP180;5068;51.286;7.518;2023-07-29T07:16:46;98593.00;;;22.20
10058;BMP180;5068;51.286;7.518;2023-07-29T07:18:19;98587.00;;;22.20
10058;BMP180;5068;51.286;7.518;2023-07-29T07:19:54;98594.00;;;22.10
10058;BMP180;5068;51.286;7.518;2023-07-29T07:21:27;98594.00;;;22.10
10058;BMP180;5068;51.286;7.518;2023-07-29T07:23:00;98593.00;;;22.10
10058;BMP180;5068;51.286;7.518;2023-07-29T07:24:35;98593.00;;;22.10
10058;BMP180;5068;51.286;7.518;2023-07-29T07:26:07;98599.00;;;22.00
10058;BMP180;5068;51.286;7.518;2023-07-29T07:27:40;98591.00;;;22.00
10058;BMP180;5068;51.286;7.518;2023-07-29T07:29:14;98593.00;;;22.00
10058;BMP180;5068;51.286;7.518;2023-07-29T07:30:47;98597.00;;;22.00
10058;BMP180;5068;51.286;7.518;2023-07-29T07:32:20;98588.00;;;22.00
10058;BMP180;5068;51.286;7.518;2023-07-29T07:33:56;98600.00;;;22.00
10058;BMP180;5068;51.286;7.518;2023-07-29T07:35:30;98607.00;;;22.00
10058;BMP180;5068;51.286;7.518;2023-07-29T07:37:06;98602.00;;;22.00
10058;BMP180;5068;51.286;7.518;2023-07-29T07:38:45;98598.00;;;22.00
10058;BMP180;5068;51.286;7.518;2023-07-29T07:40:18;98602.00;;;22.00
10058;BMP180;5068;51.286;7.518;2023-07-29T07:41:52;98591.00;;;22.00
10058;BMP180;5068;51.286;7.518;2023-07-29T07:43:24;98606.00;;;22.00
10058;BMP180;5068;51.286;7.518;2023-07-29T07:44:58;98594.00;;;22.10
10058;BMP180;5068;51.286;7.518;2023-07-29T07:46:32;98584.00;;;22.00
10058;BMP180;5068;51.286;7.518;2023-07-29T07:48:04;98584.00;;;22.10
10058;BMP180;5068;51.286;7.518;2023-07-29T07:49:39;98581.00;;;22.10
10058;BMP180;5068;51.286;7.518;2023-07-29T07:51:12;98581.00;;;22.10
10058;BMP180;5068;51.286;7.518;2023-07-29T07:52:46;98574.00;;;22.20
10058;BMP180;5068;51.286;7.518;2023-07-29T07:54:18;98569.00;;;22.20
10058;BMP180;5068;51.286;7.518;2023-07-29T07:55:53;98570.00;;;22.20
10058;BMP180;5068;51.286;7.518;2023-07-29T07:57:25;98569.00;;;22.30
10058;BMP180;5068;51.286;7.518;2023-07-29T07:58:59;98570.00;;;22.30
10058;BMP180;5068;51.286;7.518;2023-07-29T08:00:31;98576.00;;;22.30
10058;BMP180;5068;51.286;7.518;2023-07-29T08:02:05;98571.00;;;22.30
10058;BMP180;5068;51.286;7.518;2023-07-29T08:03:37;98576.00;;;22.40
10058;BMP180;5068;51.286;7.518;2023-07-29T08:05:11;98580.00;;;22.40
10058;BMP180;5068;51.286;7.518;2023-07-29T08:06:43;98586.00;;;22.40
10058;BMP180;5068;51.286;7.518;2023-07-29T08:08:17;98595.00;;;22.40
10058;BMP180;5068;51.286;7.518;2023-07-29T08:09:50;98579.00;;;22.50
10058;BMP180;5068;51.286;7.518;2023-07-29T08:11:25;98575.00;;;22.50
10058;BMP180;5068;51.286;7.518;2023-07-29T08:12:58;98586.00;;;22.60
10058;BMP180;5068;51.286;7.518;2023-07-29T08:14:31;98583.00;;;22.60
10058;BMP180;5068;51.286;7.518;2023-07-29T08:16:05;98582.00;;;22.60
10058;BMP180;5068;51.286;7.518;2023-07-29T08:17:37;98576.00;;;22.60
10058;BMP180;5068;51.286;7.518;2023-07-29T08:19:11;98588.00;;;22.60
10058;BMP180;5068;51.286;7.518;2023-07-29T08:20:52;98587.00;;;22.60
10058;BMP180;5068;51.286;7.518;2023-07-29T08:22:26;98593.00;;;22.70
10058;BMP180;5068;51.286;7.518;2023-07-29T08:24:00;98583.00;;;22.70
10058;BMP180;5068;51.286;7.518;2023-07-29T08:25:32;98592.00;;;22.70
10058;BMP180;5068;51.286;7.518;2023-07-29T08:27:07;98588.00;;;22.70
10058;BMP180;5068;51.286;7.518;2023-07-29T08:28:40;98599.00;;;22.70
10058;BMP180;5068;51.286;7.518;2023-07-29T08:30:13;98599.00;;;22.80
10058;BMP180;5068;51.286;7.518;2023-07-29T08:31:48;98599.00;;;22.80
10058;BMP180;5068;51.286;7.518;2023-07-29T08:33:24;98597.00;;;22.80
10058;BMP180;5068;51.286;7.518;2023-07-29T08:34:56;98594.00;;;22.80
10058;BMP180;5068;51.286;7.518;2023-07-29T08:36:30;98609.00;;;22.80
10058;BMP180;5068;51.286;7.518;2023-07-29T08:38:02;98611.00;;;22.70
10058;BMP180;5068;51.286;7.518;2023-07-29T08:39:36;98608.00;;;22.70
10058;BMP180;5068;51.286;7.518;2023-07-29T08:41:14;98610.00;;;22.70
10058;BMP180;5068;51.286;7.518;2023-07-29T08:42:49;98616.00;;;22.70
10058;BMP180;5068;51.286;7.518;2023-07-29T08:44:26;98622.00;;;22.70
10058;BMP180;5068;51.286;7.518;2023-07-29T08:46:02;98609.00;;;22.70
10058;BMP180;5068;51.286;7.518;2023-07-29T08:47:36;98613.00;;;22.70
10058;BMP180;5068;51.286;7.518;2023-07-29T08:49:11;98610.00;;;22.70
10058;BMP180;5068;51.286;7.518;2023-07-29T08:50:46;98594.00;;;22.70
10058;BMP180;5068;51.286;7.518;2023-07-29T08:52:20;98606.00;;;22.80
10058;BMP180;5068;51.286;7.518;2023-07-29T08:53:55;98601.00;;;22.90
10058;BMP180;5068;51.286;7.518;2023-07-29T08:55:28;98591.00;;;23.00
10058;BMP180;5068;51.286;7.518;2023-07-29T08:57:03;98592.00;;;23.00
10058;BMP180;5068;51.286;7.518;2023-07-29T08:58:39;98602.00;;;23.10
10058;BMP180;5068;51.286;7.518;2023-07-29T09:00:14;98595.00;;;23.10
10058;BMP180;5068;51.286;7.518;2023-07-29T09:01:52;98603.00;;;23.20
10058;BMP180;5068;51.286;7.518;2023-07-29T09:03:27;98592.00;;;23.20
10058;BMP180;5068;51.286;7.518;2023-07-29T09:05:01;98592.00;;;23.20
10058;BMP180;5068;51.286;7.518;2023-07-29T09:06:35;98598.00;;;23.30
10058;BMP180;5068;51.286;7.518;2023-07-29T09:08:11;98583.00;;;23.40
10058;BMP180;5068;51.286;7.518;2023-07-29T09:09:43;98597.00;;;23.40
10058;BMP180;5068;51.286;7.518;2023-07-29T09:11:17;98589.00;;;23.50